Time;durP1;ratioP1;P1;durP2;ratioP2;P2;SDS_P1;SDS_P2;PMS_P1;PMS_P2;Temp;Humidity;BMP_temperature;BMP_pressure;BME280_temperature;BME280_humidity;BME280_pressure;Samples;Min_cycle;Max_cycle;Signal;HPM_P1;HPM_P2
2021/08/11 00:02:22;;;;;;;5.53;5.07;;;22.70;36.80;;;;;;5054497;28;20175;-66
2021/08/11 00:04:48;;;;;;;6.10;5.60;;;22.70;36.80;;;;;;5054265;28;20250;-67
2021/08/11 00:07:13;;;;;;;9.00;6.33;;;22.70;36.80;;;;;;5054383;28;20196;-67
2021/08/11 00:09:39;;;;;;;5.73;4.83;;;22.70;36.90;;;;;;5054443;28;20176;-67
2021/08/11 00:12:05;;;;;;;5.50;5.00;;;22.70;36.90;;;;;;5054410;28;20555;-67
2021/08/11 00:14:31;;;;;;;5.37;4.90;;;22.70;36.90;;;;;;5054284;28;20183;-67
2021/08/11 00:16:56;;;;;;;6.67;4.87;;;22.70;37.00;;;;;;5053948;28;20823;-67
2021/08/11 00:19:22;;;;;;;6.20;5.30;;;22.70;37.00;;;;;;5054111;28;20450;-68
2021/08/11 00:21:48;;;;;;;6.80;5.53;;;22.70;36.90;;;;;;5054198;28;20697;-66
2021/08/11 00:24:13;;;;;;;9.83;5.47;;;22.70;36.90;;;;;;5054170;28;20542;-68
2021/08/11 00:26:39;;;;;;;4.80;4.40;;;22.60;36.90;;;;;;5053873;28;20731;-67
2021/08/11 00:29:04;;;;;;;5.83;5.33;;;22.70;37.00;;;;;;5054112;28;20211;-67
2021/08/11 00:31:31;;;;;;;5.53;5.13;;;22.60;36.90;;;;;;5053911;28;20176;-67
2021/08/11 00:33:56;;;;;;;5.40;4.90;;;22.60;36.90;;;;;;5053940;28;20176;-67
2021/08/11 00:36:22;;;;;;;6.00;5.40;;;22.70;37.00;;;;;;5053663;28;20824;-65
2021/08/11 00:38:47;;;;;;;5.57;5.13;;;22.60;36.90;;;;;;5053808;28;20200;-67
2021/08/11 00:41:15;;;;;;;5.13;4.73;;;22.60;36.90;;;;;;5053800;28;20264;-67
2021/08/11 00:43:40;;;;;;;5.17;4.63;;;22.60;36.90;;;;;;5053782;28;20217;-65
2021/08/11 00:46:10;;;;;;;6.27;5.03;;;22.60;36.90;;;;;;5053475;28;20430;-67
2021/08/11 00:48:37;;;;;;;5.77;5.27;;;22.60;37.00;;;;;;5053496;28;20187;-66
2021/08/11 00:51:03;;;;;;;5.50;5.10;;;22.70;37.10;;;;;;5053662;28;20776;-66
2021/08/11 00:53:31;;;;;;;5.83;5.33;;;22.70;37.10;;;;;;5053796;28;20415;-65
2021/08/11 00:55:59;;;;;;;7.13;4.93;;;22.70;37.10;;;;;;5053165;28;20440;-65
2021/08/11 00:58:25;;;;;;;5.90;5.30;;;22.70;37.10;;;;;;5053399;28;20816;-67
2021/08/11 01:00:53;;;;;;;5.43;5.00;;;22.60;37.00;;;;;;5053202;28;20415;-66
2021/08/11 01:03:21;;;;;;;4.80;4.23;;;22.70;37.20;;;;;;5053494;28;20402;-67
2021/08/11 01:05:48;;;;;;;5.13;4.73;;;22.70;37.20;;;;;;5053024;28;20848;-67
2021/08/11 01:08:15;;;;;;;5.20;4.70;;;22.60;37.10;;;;;;5053510;28;20456;-67
2021/08/11 01:10:41;;;;;;;5.70;5.20;;;22.60;37.10;;;;;;5053561;28;20417;-67
2021/08/11 01:13:09;;;;;;;6.47;5.67;;;22.60;37.10;;;;;;5053224;28;20795;-67
2021/08/11 01:15:36;;;;;;;6.93;5.43;;;22.60;37.10;;;;;;5052784;28;20462;-67
2021/08/11 01:18:01;;;;;;;5.10;4.70;;;22.60;37.20;;;;;;5053253;28;20489;-66
2021/08/11 01:20:28;;;;;;;4.90;4.50;;;22.60;37.20;;;;;;5053132;28;20403;-67
2021/08/11 01:22:57;;;;;;;5.40;5.03;;;22.60;37.20;;;;;;5052976;28;20581;-66
2021/08/11 01:25:34;;;;;;;5.77;5.30;;;22.60;37.10;;;;;;5052798;28;20771;-67
2021/08/11 01:28:09;;;;;;;5.53;5.03;;;22.60;37.10;;;;;;5053390;28;20402;-66
2021/08/11 01:30:47;;;;;;;6.30;4.50;;;22.60;37.20;;;;;;5052949;28;20418;-67
2021/08/11 01:33:38;;;;;;;5.40;4.90;;;22.60;37.10;;;;;;5053093;28;20459;-66
2021/08/11 01:36:15;;;;;;;5.20;4.70;;;22.60;37.20;;;;;;5052403;28;20468;-67
2021/08/11 01:38:46;;;;;;;6.40;4.90;;;22.60;37.20;;;;;;5052745;28;21055;-68
2021/08/11 01:41:13;;;;;;;4.20;3.80;;;22.60;37.20;;;;;;5052712;28;20425;-66
2021/08/11 01:46:46;;;;;;;5.47;4.80;;;22.60;37.30;;;;;;5011523;28;20443;-67
2021/08/11 01:49:15;;;;;;;4.70;4.30;;;22.60;37.30;;;;;;5052698;28;20411;-67
2021/08/11 01:51:45;;;;;;;4.93;4.43;;;22.60;37.20;;;;;;5052496;28;20421;-66
2021/08/11 01:54:11;;;;;;;7.80;5.20;;;22.60;37.20;;;;;;5052507;28;20415;-66
2021/08/11 01:56:41;;;;;;;4.73;4.33;;;22.60;37.40;;;;;;5052060;28;20423;-67
2021/08/11 01:59:08;;;;;;;3.83;3.53;;;22.60;37.40;;;;;;5051655;28;20473;-65
2021/08/11 02:01:37;;;;;;;5.47;5.07;;;22.60;37.40;;;;;;5052332;28;20421;-66
2021/08/11 02:04:03;;;;;;;5.03;4.63;;;22.60;37.40;;;;;;5052331;28;20413;-65
2021/08/11 02:06:29;;;;;;;5.87;5.10;;;22.60;37.40;;;;;;5051897;28;20437;-66
2021/08/11 02:08:56;;;;;;;4.73;4.37;;;22.60;37.40;;;;;;5052267;28;20415;-67
2021/08/11 02:11:22;;;;;;;5.33;4.87;;;22.60;37.40;;;;;;5052119;28;20176;-66
2021/08/11 02:13:48;;;;;;;4.70;4.33;;;22.60;37.40;;;;;;5052017;28;20406;-66
2021/08/11 02:16:14;;;;;;;4.40;4.10;;;22.60;37.40;;;;;;5051784;28;20436;-66
2021/08/11 02:18:39;;;;;;;9.57;4.73;;;22.60;37.40;;;;;;5052026;28;20545;-64
2021/08/11 02:21:05;;;;;;;4.57;4.00;;;22.60;37.40;;;;;;5051983;28;20214;-66
2021/08/11 02:23:30;;;;;;;5.37;4.87;;;22.60;37.40;;;;;;5052002;28;20234;-66
2021/08/11 02:26:19;;;;;;;5.03;4.50;;;22.60;37.40;;;;;;5051529;28;20222;-66
2021/08/11 02:28:50;;;;;;;4.20;3.90;;;22.60;37.40;;;;;;5052005;28;20673;-66
2021/08/11 02:31:35;;;;;;;4.57;4.20;;;22.60;37.40;;;;;;5051963;28;20417;-65
2021/08/11 02:34:34;;;;;;;5.03;4.57;;;22.60;37.40;;;;;;5051973;28;20407;-66
2021/08/11 02:37:06;;;;;;;4.90;4.20;;;22.60;37.40;;;;;;5051610;28;20441;-66
2021/08/11 02:39:39;;;;;;;4.53;4.20;;;22.60;37.40;;;;;;5051989;28;20415;-65
2021/08/11 02:42:11;;;;;;;4.77;4.43;;;22.50;37.30;;;;;;5051674;28;20780;-66
2021/08/11 02:44:44;;;;;;;4.20;3.90;;;22.60;37.40;;;;;;5051754;28;20402;-66
2021/08/11 02:47:10;;;;;;;4.60;4.23;;;22.50;37.40;;;;;;5051478;28;20418;-66
2021/08/11 02:49:38;;;;;;;4.63;4.33;;;22.50;37.30;;;;;;5051722;28;20406;-66
2021/08/11 02:52:05;;;;;;;4.27;3.90;;;22.60;37.50;;;;;;5051438;28;20407;-67
2021/08/11 02:54:31;;;;;;;4.33;4.03;;;22.50;37.40;;;;;;5051653;28;20831;-65
2021/08/11 02:57:00;;;;;;;4.50;4.10;;;22.50;37.40;;;;;;5051206;28;20437;-65
2021/08/11 02:59:25;;;;;;;4.67;4.37;;;22.50;37.40;;;;;;5051399;28;20466;-67
2021/08/11 03:01:51;;;;;;;5.60;4.40;;;22.50;37.60;;;;;;5051668;28;20403;-66
2021/08/11 03:04:17;;;;;;;5.27;4.87;;;22.50;37.40;;;;;;5051581;28;20247;-67
2021/08/11 03:06:43;;;;;;;5.20;4.70;;;22.50;37.40;;;;;;5051059;28;20192;-65
2021/08/11 03:09:09;;;;;;;4.50;4.10;;;22.50;37.30;;;;;;5051532;28;20175;-66
2021/08/11 03:11:36;;;;;;;4.80;4.10;;;22.50;37.40;;;;;;5051976;28;20410;-66
2021/08/11 03:14:04;;;;;;;4.63;4.23;;;22.50;37.40;;;;;;5055543;28;20410;-67
2021/08/11 03:16:29;;;;;;;4.67;4.27;;;22.50;37.40;;;;;;5055199;28;20891;-66
2021/08/11 03:18:55;;;;;;;4.50;4.10;;;22.50;37.50;;;;;;5055384;28;20555;-66
2021/08/11 03:21:20;;;;;;;4.10;3.50;;;22.50;37.40;;;;;;5055213;28;20176;-67
2021/08/11 03:23:46;;;;;;;4.90;4.50;;;22.50;37.40;;;;;;5055331;28;20164;-70
2021/08/11 03:26:12;;;;;;;3.70;3.30;;;22.50;37.40;;;;;;5054880;28;20200;-66
2021/08/11 03:28:38;;;;;;;4.50;4.20;;;22.50;37.50;;;;;;5055151;28;20588;-66
2021/08/11 03:31:04;;;;;;;5.10;4.60;;;22.50;37.40;;;;;;5055169;28;20222;-67
2021/08/11 03:33:29;;;;;;;7.97;4.30;;;22.50;37.60;;;;;;5055086;28;20222;-67
2021/08/11 03:35:55;;;;;;;4.50;4.17;;;22.50;37.60;;;;;;5054762;28;20199;-67
2021/08/11 03:38:20;;;;;;;4.57;4.17;;;22.50;37.60;;;;;;5055077;28;20200;-67
2021/08/11 03:40:46;;;;;;;5.03;4.60;;;22.50;37.60;;;;;;5055042;28;20182;-66
2021/08/11 03:43:11;;;;;;;4.37;4.07;;;22.50;37.50;;;;;;5054816;28;20202;-67
2021/08/11 03:45:37;;;;;;;4.37;3.97;;;22.50;37.50;;;;;;5054966;28;20646;-67
2021/08/11 03:48:03;;;;;;;4.43;4.03;;;22.50;37.50;;;;;;5054762;28;20689;-67
2021/08/11 03:50:29;;;;;;;4.83;4.33;;;22.50;37.50;;;;;;5054900;28;20549;-67
2021/08/11 03:52:54;;;;;;;4.43;4.20;;;22.50;38.30;;;;;;5054576;28;20172;-66
2021/08/11 03:55:20;;;;;;;4.73;4.33;;;22.50;37.60;;;;;;5054631;28;20183;-67
2021/08/11 03:57:47;;;;;;;4.13;3.73;;;22.50;37.70;;;;;;5054269;28;20219;-67
2021/08/11 04:00:12;;;;;;;5.70;4.40;;;22.50;37.70;;;;;;5054674;28;20407;-66
2021/08/11 04:02:38;;;;;;;6.17;4.30;;;22.50;37.70;;;;;;5054611;28;20422;-67
2021/08/11 04:05:06;;;;;;;5.90;4.40;;;22.50;37.70;;;;;;5054443;28;20199;-67
2021/08/11 04:07:31;;;;;;;4.50;4.10;;;22.50;37.90;;;;;;5054239;28;20433;-67
2021/08/11 04:09:57;;;;;;;5.57;4.93;;;22.50;38.20;;;;;;5054478;28;20411;-67
2021/08/11 04:12:22;;;;;;;5.67;4.57;;;22.50;38.20;;;;;;5054051;28;20172;-68
2021/08/11 04:14:48;;;;;;;5.17;4.77;;;22.50;38.20;;;;;;5054243;28;20184;-67
2021/08/11 04:17:13;;;;;;;5.50;5.10;;;22.50;38.30;;;;;;5054134;28;20245;-66
2021/08/11 04:19:39;;;;;;;4.30;4.00;;;22.50;38.20;;;;;;5054288;28;20176;-66
2021/08/11 04:22:04;;;;;;;5.60;5.10;;;22.50;38.20;;;;;;5053765;28;20178;-68
2021/08/11 04:24:30;;;;;;;4.80;4.40;;;22.50;38.20;;;;;;5053903;28;20258;-67
2021/08/11 04:26:55;;;;;;;5.07;4.57;;;22.50;38.20;;;;;;5053710;28;20196;-67
2021/08/11 04:29:22;;;;;;;7.33;4.80;;;22.50;38.20;;;;;;5053944;28;20208;-66
2021/08/11 04:31:47;;;;;;;5.13;4.63;;;22.50;38.20;;;;;;5053992;28;20172;-68
2021/08/11 04:34:13;;;;;;;5.57;5.07;;;22.50;38.20;;;;;;5054022;28;20425;-68
2021/08/11 04:36:38;;;;;;;5.00;4.50;;;22.50;38.30;;;;;;5053647;28;20282;-67
2021/08/11 04:39:04;;;;;;;5.63;5.17;;;22.40;38.20;;;;;;5053789;28;20598;-66
2021/08/11 04:41:29;;;;;;;4.93;4.33;;;22.50;38.30;;;;;;5051870;28;20202;-67
2021/08/11 04:43:55;;;;;;;5.00;4.60;;;22.50;38.30;;;;;;5014705;28;20216;-66
2021/08/11 04:46:20;;;;;;;4.97;4.47;;;22.50;38.40;;;;;;5012861;28;20192;-66
2021/08/11 04:48:46;;;;;;;5.03;4.40;;;22.50;38.30;;;;;;5014013;28;20181;-66
2021/08/11 04:51:11;;;;;;;5.07;4.63;;;22.40;38.20;;;;;;5013853;28;20181;-68
2021/08/11 04:53:37;;;;;;;5.83;4.87;;;22.40;38.20;;;;;;5013887;28;20172;-68
2021/08/11 04:56:02;;;;;;;4.70;4.30;;;22.40;38.20;;;;;;5013626;28;20284;-67
2021/08/11 04:58:28;;;;;;;4.97;4.60;;;22.50;38.20;;;;;;5013601;28;20201;-66
2021/08/11 05:00:53;;;;;;;6.00;5.20;;;22.40;38.20;;;;;;5013827;28;20257;-67
2021/08/11 05:03:19;;;;;;;5.47;4.97;;;22.40;38.20;;;;;;5022335;28;20177;-66
2021/08/11 05:05:44;;;;;;;4.90;4.53;;;22.50;38.30;;;;;;5032817;28;20199;-67
2021/08/11 05:08:10;;;;;;;4.53;4.23;;;22.40;38.30;;;;;;5033021;28;20263;-67
2021/08/11 05:10:36;;;;;;;5.17;4.47;;;22.40;38.20;;;;;;5033376;28;20180;-67
2021/08/11 05:13:01;;;;;;;5.23;4.73;;;22.40;38.30;;;;;;5015422;28;20192;-67
2021/08/11 05:15:27;;;;;;;5.73;4.60;;;22.40;38.30;;;;;;5033151;28;20223;-67
2021/08/11 05:17:52;;;;;;;4.80;4.10;;;22.50;38.40;;;;;;5033334;28;20200;-67
2021/08/11 05:20:19;;;;;;;4.83;4.43;;;22.40;38.30;;;;;;5033149;28;20180;-67
2021/08/11 05:22:46;;;;;;;5.03;4.73;;;22.40;38.30;;;;;;5033149;28;20173;-66
2021/08/11 05:25:12;;;;;;;5.10;4.40;;;22.40;38.30;;;;;;5032793;28;20412;-67
2021/08/11 05:27:37;;;;;;;4.90;4.30;;;22.40;38.30;;;;;;5032858;28;20443;-67
2021/08/11 05:30:08;;;;;;;5.40;4.87;;;22.40;38.40;;;;;;5032984;28;20180;-68
2021/08/11 05:32:34;;;;;;;4.90;4.50;;;22.40;38.30;;;;;;5032808;28;20681;-67
2021/08/11 05:34:59;;;;;;;7.83;4.97;;;22.40;38.30;;;;;;5031811;28;20408;-67
2021/08/11 05:37:25;;;;;;;6.20;5.20;;;22.40;38.30;;;;;;5032682;28;20207;-67
2021/08/11 05:39:51;;;;;;;5.27;4.87;;;22.40;38.30;;;;;;5032538;28;20274;-67
2021/08/11 05:42:17;;;;;;;4.73;4.20;;;22.40;38.30;;;;;;5032478;28;20439;-67
2021/08/11 05:44:42;;;;;;;5.10;4.70;;;22.40;38.40;;;;;;5019444;28;20204;-68
2021/08/11 05:47:11;;;;;;;7.00;5.70;;;22.40;38.50;;;;;;5032623;28;20242;-68
2021/08/11 05:49:36;;;;;;;4.83;4.43;;;22.40;38.50;;;;;;5032709;28;20172;-67
2021/08/11 05:52:04;;;;;;;5.57;5.03;;;22.40;38.60;;;;;;5032532;28;20823;-67
2021/08/11 05:54:30;;;;;;;6.57;5.43;;;22.40;38.50;;;;;;5032260;28;20196;-67
2021/08/11 05:56:56;;;;;;;6.23;5.63;;;22.40;38.50;;;;;;5031358;28;20562;-68
2021/08/11 05:59:21;;;;;;;6.20;5.60;;;22.40;38.60;;;;;;5031994;28;20626;-67
2021/08/11 06:01:47;;;;;;;5.23;4.73;;;22.40;38.60;;;;;;5032330;28;20570;-66
2021/08/11 06:04:13;;;;;;;5.70;4.80;;;22.40;38.60;;;;;;5032439;28;20168;-66
2021/08/11 06:06:38;;;;;;;5.60;4.87;;;22.40;38.70;;;;;;5031948;28;20225;-65
2021/08/11 06:09:04;;;;;;;5.73;5.23;;;22.40;39.40;;;;;;5032318;28;20177;-65
2021/08/11 06:11:29;;;;;;;7.93;5.63;;;22.40;38.60;;;;;;5032069;28;20646;-64
2021/08/11 06:13:55;;;;;;;7.03;5.43;;;22.40;38.50;;;;;;5032236;28;20211;-66
2021/08/11 06:16:20;;;;;;;5.90;5.27;;;22.40;38.50;;;;;;5031576;28;20674;-66
2021/08/11 06:18:46;;;;;;;5.90;5.30;;;22.40;38.60;;;;;;5032257;28;20216;-66
2021/08/11 06:21:12;;;;;;;9.63;5.13;;;22.40;38.60;;;;;;5031903;28;20176;-65
2021/08/11 06:23:37;;;;;;;9.20;5.27;;;22.40;38.60;;;;;;5031931;28;20169;-65
2021/08/11 06:26:03;;;;;;;10.80;5.90;;;22.40;38.60;;;;;;5031822;28;20200;-67
2021/08/11 06:28:28;;;;;;;7.13;6.43;;;22.40;38.70;;;;;;5031807;28;20172;-67
2021/08/11 06:30:54;;;;;;;7.10;5.90;;;22.40;38.80;;;;;;5031939;28;20553;-66
2021/08/11 06:33:20;;;;;;;8.20;5.90;;;22.40;38.70;;;;;;5031823;28;20180;-64
2021/08/11 06:35:45;;;;;;;7.90;6.27;;;22.40;38.80;;;;;;5031411;28;20204;-65
2021/08/11 06:38:11;;;;;;;7.93;6.63;;;22.40;38.80;;;;;;5031583;28;20458;-65
2021/08/11 06:40:37;;;;;;;7.83;6.40;;;22.40;38.70;;;;;;5032402;28;20180;-66
2021/08/11 06:43:03;;;;;;;7.40;5.93;;;22.40;38.80;;;;;;5031721;28;20172;-65
2021/08/11 06:45:29;;;;;;;13.37;6.60;;;22.40;38.70;;;;;;5031415;28;20404;-65
2021/08/11 06:47:54;;;;;;;7.40;6.43;;;22.40;38.60;;;;;;5031488;28;20538;-65
2021/08/11 06:50:20;;;;;;;7.30;5.60;;;22.40;38.60;;;;;;5031910;28;20668;-65
2021/08/11 06:52:45;;;;;;;7.20;5.63;;;22.40;38.70;;;;;;5031481;28;20590;-64
2021/08/11 06:55:14;;;;;;;7.60;5.43;;;22.50;38.80;;;;;;5031568;28;20177;-64
2021/08/11 06:57:40;;;;;;;12.90;6.73;;;22.50;38.80;;;;;;5029509;28;20212;-65
2021/08/11 07:00:08;;;;;;;6.50;4.87;;;22.50;38.80;;;;;;5032313;28;20455;-65
2021/08/11 07:02:34;;;;;;;5.93;5.37;;;22.50;38.60;;;;;;5030690;28;20426;-66
2021/08/11 07:04:59;;;;;;;7.70;5.60;;;22.50;38.60;;;;;;5031323;28;20411;-65
2021/08/11 07:07:25;;;;;;;5.63;5.07;;;22.50;38.40;;;;;;5031252;28;20189;-65
2021/08/11 07:09:52;;;;;;;6.60;5.00;;;22.50;38.20;;;;;;5031180;28;20173;-65
2021/08/11 07:12:17;;;;;;;6.43;5.43;;;22.50;38.30;;;;;;5031596;28;20165;-65
2021/08/11 07:14:43;;;;;;;6.90;6.00;;;22.60;38.80;;;;;;5030836;28;20794;-65
2021/08/11 07:17:08;;;;;;;5.97;5.40;;;22.60;39.20;;;;;;5042338;28;20188;-65
2021/08/11 07:19:34;;;;;;;6.00;5.37;;;22.60;39.30;;;;;;5051104;28;20200;-67
2021/08/11 07:22:00;;;;;;;6.70;5.30;;;22.60;39.30;;;;;;5051052;28;20160;-68
2021/08/11 07:24:25;;;;;;;5.93;5.10;;;22.60;39.40;;;;;;5051148;28;20168;-68
2021/08/11 07:26:51;;;;;;;6.00;5.50;;;22.60;39.40;;;;;;5050941;28;20716;-67
2021/08/11 07:29:16;;;;;;;5.80;5.20;;;22.60;39.40;;;;;;5051250;28;20172;-66
2021/08/11 07:31:42;;;;;;;6.00;5.10;;;22.60;39.40;;;;;;5051095;28;20172;-68
2021/08/11 07:34:07;;;;;;;5.90;5.40;;;22.60;39.40;;;;;;5051189;28;20183;-68
2021/08/11 07:36:33;;;;;;;7.23;5.27;;;22.70;39.40;;;;;;5050520;28;20192;-68
2021/08/11 07:38:58;;;;;;;5.50;5.00;;;22.70;39.40;;;;;;5051144;28;20214;-67
2021/08/11 07:41:24;;;;;;;7.40;6.63;;;22.70;39.60;;;;;;5050916;28;20233;-66
2021/08/11 07:43:49;;;;;;;6.83;5.60;;;22.70;39.50;;;;;;5051056;28;20172;-64
2021/08/11 07:46:16;;;;;;;6.17;5.57;;;22.70;39.50;;;;;;5050637;28;20241;-66
2021/08/11 07:48:42;;;;;;;5.63;4.90;;;22.70;39.70;;;;;;5050958;28;20250;-67
2021/08/11 07:51:07;;;;;;;5.27;4.73;;;22.70;39.70;;;;;;5050846;28;20414;-67
2021/08/11 07:53:33;;;;;;;7.60;5.27;;;22.80;39.80;;;;;;5050822;28;20692;-67
2021/08/11 07:55:58;;;;;;;5.77;5.20;;;22.80;39.70;;;;;;5050723;28;20184;-68
2021/08/11 07:58:25;;;;;;;5.70;5.10;;;22.80;39.70;;;;;;5052588;28;20677;-66
2021/08/11 08:00:51;;;;;;;8.03;5.80;;;22.80;39.60;;;;;;5054403;28;20191;-66
2021/08/11 08:03:17;;;;;;;12.97;5.90;;;22.80;39.50;;;;;;5054122;28;20411;-66
2021/08/11 08:05:43;;;;;;;5.70;5.20;;;22.80;39.30;;;;;;5054057;28;20411;-67
2021/08/11 08:08:09;;;;;;;6.20;5.60;;;22.80;39.30;;;;;;5054201;28;20230;-66
2021/08/11 08:10:34;;;;;;;6.50;5.60;;;22.80;39.30;;;;;;5054362;28;20310;-66
2021/08/11 08:13:00;;;;;;;5.93;5.43;;;22.90;39.30;;;;;;5054142;28;20225;-68
2021/08/11 08:15:28;;;;;;;5.33;5.00;;;22.90;39.20;;;;;;5053860;28;20537;-67
2021/08/11 08:17:53;;;;;;;7.70;5.70;;;22.90;39.10;;;;;;5054605;28;20203;-68
2021/08/11 08:20:19;;;;;;;5.50;4.97;;;22.90;39.10;;;;;;5054195;28;20917;-69
2021/08/11 08:22:46;;;;;;;5.90;5.37;;;22.90;39.00;;;;;;5054202;28;20176;-67
2021/08/11 08:25:12;;;;;;;6.23;5.23;;;22.90;39.00;;;;;;5053915;28;20175;-69
2021/08/11 08:27:38;;;;;;;5.67;5.20;;;23.00;39.00;;;;;;5053770;28;20470;-70
2021/08/11 08:30:06;;;;;;;6.10;5.60;;;23.00;39.00;;;;;;5054070;28;20187;-69
2021/08/11 08:32:32;;;;;;;5.77;5.23;;;23.00;39.00;;;;;;5053949;28;20434;-71
2021/08/11 08:34:58;;;;;;;6.37;5.77;;;23.00;39.00;;;;;;5053709;28;20527;-69
2021/08/11 08:37:31;;;;;;;5.40;5.00;;;23.00;39.00;;;;;;5053707;28;20652;-67
2021/08/11 08:39:57;;;;;;;5.70;5.30;;;23.00;38.90;;;;;;5054046;28;20186;-68
2021/08/11 08:42:23;;;;;;;5.90;5.40;;;23.10;38.90;;;;;;5053745;28;20418;-70
2021/08/11 08:44:48;;;;;;;5.70;5.20;;;23.00;38.90;;;;;;5053668;28;20226;-70
2021/08/11 08:47:17;;;;;;;5.47;4.83;;;23.10;38.90;;;;;;5053497;28;20249;-69
2021/08/11 08:49:44;;;;;;;5.83;5.27;;;23.10;39.00;;;;;;5053703;28;20257;-69
2021/08/11 08:52:10;;;;;;;5.77;5.23;;;23.10;38.90;;;;;;5040672;28;20430;-69
2021/08/11 08:54:36;;;;;;;5.50;5.00;;;23.10;38.90;;;;;;5033534;28;20909;-68
2021/08/11 08:57:02;;;;;;;6.00;5.33;;;23.10;38.90;;;;;;5033155;28;20270;-66
2021/08/11 08:59:28;;;;;;;4.93;4.53;;;23.10;38.80;;;;;;5033410;28;20828;-68
2021/08/11 09:01:53;;;;;;;7.83;4.70;;;23.10;38.80;;;;;;5033523;28;20243;-67
2021/08/11 09:04:20;;;;;;;5.40;5.00;;;23.10;38.80;;;;;;5033227;28;20416;-69
2021/08/11 09:06:45;;;;;;;5.87;5.33;;;23.20;38.90;;;;;;5033256;28;20199;-68
2021/08/11 09:09:12;;;;;;;6.13;5.27;;;23.20;38.90;;;;;;5033318;28;20415;-67
2021/08/11 09:11:40;;;;;;;5.73;4.93;;;23.20;39.00;;;;;;5033461;28;20588;-69
2021/08/11 09:14:18;;;;;;;5.30;4.83;;;23.20;38.90;;;;;;5033231;28;20423;-67
2021/08/11 09:16:59;;;;;;;5.63;5.23;;;23.20;38.90;;;;;;5032839;28;20943;-69
2021/08/11 09:19:25;;;;;;;5.60;5.20;;;23.20;38.90;;;;;;5033048;28;20819;-69
2021/08/11 09:22:02;;;;;;;6.00;5.40;;;23.20;38.90;;;;;;5033477;28;20902;-68
2021/08/11 09:24:32;;;;;;;5.40;5.00;;;23.30;38.80;;;;;;5032994;28;20418;-69
2021/08/11 09:27:24;;;;;;;5.10;4.57;;;23.30;38.90;;;;;;5032750;28;20435;-68
2021/08/11 09:30:19;;;;;;;5.57;5.17;;;23.30;38.90;;;;;;5033121;28;20814;-67
2021/08/11 09:33:04;;;;;;;5.90;5.50;;;23.30;39.00;;;;;;5027502;28;20427;-67
2021/08/11 09:35:38;;;;;;;6.07;5.67;;;23.30;38.90;;;;;;5032499;28;20415;-70
2021/08/11 09:38:13;;;;;;;5.67;5.27;;;23.30;38.90;;;;;;5032976;28;20467;-69
2021/08/11 09:40:41;;;;;;;6.10;5.60;;;23.30;38.80;;;;;;5032693;28;20494;-68
2021/08/11 09:43:13;;;;;;;5.83;5.40;;;23.40;39.00;;;;;;5032794;28;20415;-69
2021/08/11 09:45:53;;;;;;;5.97;5.53;;;23.40;38.90;;;;;;5032288;28;20902;-67
2021/08/11 09:48:21;;;;;;;5.90;5.40;;;23.40;39.50;;;;;;5032882;28;20479;-72
2021/08/11 09:51:03;;;;;;;5.60;5.13;;;23.40;38.80;;;;;;5032694;28;20492;-67
2021/08/11 09:53:29;;;;;;;5.23;4.73;;;23.40;38.70;;;;;;5032517;28;20442;-67
2021/08/11 09:55:55;;;;;;;7.23;5.40;;;23.40;38.80;;;;;;5032316;28;20470;-67
2021/08/11 09:58:20;;;;;;;4.63;4.33;;;23.40;38.70;;;;;;5031883;28;20205;-69
2021/08/11 10:00:46;;;;;;;4.80;4.50;;;23.40;38.70;;;;;;5032469;28;20855;-69
2021/08/11 10:03:12;;;;;;;4.90;4.60;;;23.40;38.60;;;;;;5032167;28;20232;-70
2021/08/11 10:05:38;;;;;;;5.53;5.13;;;23.50;38.70;;;;;;5032262;28;20182;-70
2021/08/11 10:08:05;;;;;;;5.37;4.97;;;23.50;38.70;;;;;;5032206;28;20180;-69
2021/08/11 10:10:47;;;;;;;4.93;4.50;;;23.50;38.70;;;;;;5032279;28;20427;-68
2021/08/11 10:13:17;;;;;;;4.57;4.23;;;23.50;38.60;;;;;;5031955;28;20482;-69
2021/08/11 10:15:45;;;;;;;5.30;5.00;;;23.50;39.40;;;;;;5032059;28;20469;-69
2021/08/11 10:18:13;;;;;;;5.40;5.00;;;23.40;38.50;;;;;;5032205;28;20487;-66
2021/08/11 10:20:40;;;;;;;5.40;5.00;;;23.40;38.50;;;;;;5031685;28;20434;-67
2021/08/11 10:23:06;;;;;;;4.50;4.20;;;23.40;38.40;;;;;;5032106;28;20403;-67
2021/08/11 10:25:32;;;;;;;5.43;5.03;;;23.40;38.40;;;;;;5031653;28;20473;-67
2021/08/11 10:27:58;;;;;;;6.77;5.10;;;23.40;38.40;;;;;;5032007;28;20168;-68
2021/08/11 10:30:23;;;;;;;5.30;4.70;;;23.40;38.50;;;;;;5031691;28;20247;-70
2021/08/11 10:32:50;;;;;;;5.50;5.00;;;23.40;38.50;;;;;;5031996;28;20181;-68
2021/08/11 10:35:16;;;;;;;5.30;4.90;;;23.30;38.40;;;;;;5031382;28;20260;-69
2021/08/11 10:37:42;;;;;;;6.00;5.50;;;23.30;39.20;;;;;;5031741;28;20855;-69
2021/08/11 10:40:08;;;;;;;5.20;4.80;;;23.30;38.50;;;;;;5031754;28;20501;-68
2021/08/11 10:42:34;;;;;;;5.97;5.57;;;23.30;38.50;;;;;;5031734;28;20403;-69
2021/08/11 10:45:01;;;;;;;5.40;4.90;;;23.30;38.50;;;;;;5031653;28;20410;-68
2021/08/11 10:47:32;;;;;;;4.80;4.40;;;23.30;38.60;;;;;;5031359;28;20427;-68
2021/08/11 10:50:03;;;;;;;4.90;4.60;;;23.30;38.60;;;;;;5031814;28;20956;-68
2021/08/11 10:52:29;;;;;;;5.03;4.63;;;23.30;38.70;;;;;;5031478;28;20410;-68
2021/08/11 10:55:06;;;;;;;5.20;4.90;;;23.30;38.60;;;;;;5031684;28;21037;-69
2021/08/11 10:57:34;;;;;;;4.60;4.30;;;23.30;38.50;;;;;;5030963;28;20969;-67
2021/08/11 11:00:20;;;;;;;5.80;5.40;;;23.20;38.40;;;;;;5031783;28;20447;-68
2021/08/11 11:02:48;;;;;;;5.30;4.90;;;23.30;38.70;;;;;;5017008;28;20861;-68
2021/08/11 11:05:20;;;;;;;4.73;4.40;;;23.30;38.70;;;;;;5038248;28;20418;-66
2021/08/11 11:08:15;;;;;;;6.30;5.00;;;23.30;38.60;;;;;;5051105;28;20936;-69
2021/08/11 11:10:45;;;;;;;5.13;4.63;;;23.30;38.50;;;;;;5034753;28;20447;-67
2021/08/11 11:13:23;;;;;;;5.43;5.03;;;23.30;38.70;;;;;;5030769;28;20823;-66
2021/08/11 11:15:49;;;;;;;4.93;4.53;;;23.30;38.60;;;;;;5031025;28;20808;-65
2021/08/11 11:18:22;;;;;;;5.27;4.87;;;23.30;38.40;;;;;;5031101;28;20459;-70
2021/08/11 11:20:48;;;;;;;5.77;5.27;;;23.30;38.30;;;;;;5048768;28;20472;-68
2021/08/11 11:23:33;;;;;;;5.10;4.70;;;23.30;38.30;;;;;;5037395;28;20443;-68
2021/08/11 11:26:05;;;;;;;4.90;4.50;;;23.30;38.20;;;;;;5014410;28;20478;-65
2021/08/11 11:28:54;;;;;;;5.60;5.20;;;23.30;38.30;;;;;;5015996;28;20437;-67
2021/08/11 11:31:40;;;;;;;4.70;4.40;;;23.30;38.20;;;;;;5004732;28;20437;-67
2021/08/11 11:34:29;;;;;;;5.67;5.10;;;23.30;38.20;;;;;;4959475;28;20980;-69
2021/08/11 11:36:54;;;;;;;5.20;4.67;;;23.30;38.10;;;;;;4961182;28;20450;-71
2021/08/11 11:39:21;;;;;;;5.93;5.43;;;23.30;38.20;;;;;;4959321;28;20537;-67
2021/08/11 11:42:28;;;;;;;5.33;4.90;;;23.30;38.20;;;;;;4998971;28;20229;-68
2021/08/11 11:44:58;;;;;;;6.17;4.87;;;23.30;38.20;;;;;;4976722;28;20560;-67
2021/08/11 11:47:47;;;;;;;4.67;4.27;;;23.30;38.90;;;;;;4995680;28;20510;-68
2021/08/11 11:50:21;;;;;;;5.93;5.37;;;23.40;38.30;;;;;;5000086;28;20460;-68
2021/08/11 11:52:52;;;;;;;5.90;5.40;;;23.30;38.20;;;;;;4999177;28;20474;-68
2021/08/11 11:55:34;;;;;;;5.73;5.30;;;23.30;38.10;;;;;;4998512;28;21832;-70
2021/08/11 11:58:05;;;;;;;5.10;4.80;;;23.30;38.10;;;;;;4999753;28;21168;-67
2021/08/11 12:00:30;;;;;;;5.47;5.00;;;23.30;38.20;;;;;;5000466;28;20446;-69
2021/08/11 12:02:56;;;;;;;4.67;4.37;;;23.30;38.20;;;;;;4999105;28;20448;-70
2021/08/11 12:05:23;;;;;;;5.10;4.80;;;23.30;38.20;;;;;;4998218;28;20746;-64
2021/08/11 12:07:49;;;;;;;5.53;5.03;;;23.30;38.20;;;;;;4999515;28;20878;-69
2021/08/11 12:10:41;;;;;;;5.30;4.93;;;23.30;38.20;;;;;;4999402;28;20531;-69
2021/08/11 12:13:07;;;;;;;5.60;5.07;;;23.40;38.30;;;;;;4998083;28;20228;-70
2021/08/11 12:15:35;;;;;;;5.27;4.97;;;23.40;38.40;;;;;;4998143;28;20459;-68
2021/08/11 12:18:22;;;;;;;7.00;4.73;;;23.30;38.30;;;;;;5024678;28;20543;-68
2021/08/11 12:20:49;;;;;;;4.77;4.47;;;23.30;38.30;;;;;;5039812;28;20450;-67
2021/08/11 12:23:16;;;;;;;4.50;4.20;;;23.30;38.30;;;;;;5038512;28;20875;-67
2021/08/11 12:25:42;;;;;;;4.97;4.60;;;23.30;38.30;;;;;;5037720;28;20541;-68
2021/08/11 12:28:14;;;;;;;5.00;4.67;;;23.40;38.50;;;;;;5038722;28;20607;-70
2021/08/11 12:30:49;;;;;;;5.23;4.93;;;23.30;38.40;;;;;;5038686;28;20241;-68
2021/08/11 12:33:17;;;;;;;5.30;4.90;;;23.40;38.50;;;;;;5039208;28;20800;-66
2021/08/11 12:35:42;;;;;;;6.20;5.13;;;23.40;38.40;;;;;;5037838;28;20454;-67
2021/08/11 12:38:08;;;;;;;4.93;4.63;;;23.40;38.50;;;;;;5037767;28;20474;-66
2021/08/11 12:40:39;;;;;;;5.60;5.20;;;23.40;38.60;;;;;;5038611;28;20827;-66
2021/08/11 12:43:06;;;;;;;5.50;5.10;;;23.40;38.70;;;;;;5038414;28;20282;-67
2021/08/11 12:45:52;;;;;;;4.97;4.57;;;23.40;38.70;;;;;;5038894;28;20457;-66
2021/08/11 12:48:27;;;;;;;5.60;5.20;;;23.40;38.70;;;;;;5037664;28;20446;-67
2021/08/11 12:50:58;;;;;;;5.60;5.30;;;23.40;38.80;;;;;;5038311;28;21007;-68
2021/08/11 12:53:24;;;;;;;4.83;4.10;;;23.40;38.80;;;;;;5019145;28;20443;-67
2021/08/11 12:56:16;;;;;;;5.47;5.10;;;23.40;38.80;;;;;;5016640;28;20795;-66